Terminal Aerodrome Forecast
Issued by NWS

Home | Current Version | Previous Version | Graphics & Text | Print | Product List | Glossary On
Versions: 1 2 3 4 5 6 7 8 9 10 11 12 13 14 15 16 17 18 19 20
075
FTUS43 KMPX 211139
TAFRWF
TAF
KRWF 211139Z 2112/2212 02004KT P6SM OVC070
     FM211800 02008KT P6SM OVC050
     FM212200 02010KT P6SM OVC030
     FM220000 03010KT P6SM OVC020
     FM220600 02010G16KT 6SM -SN OVC015=

USA.gov is the U.S. government's official web portal to all federal, state and local government web resources and services.